Time;durP1;ratioP1;P1;durP2;ratioP2;P2;SDS_P1;SDS_P2;PMS_P1;PMS_P2;Temp;Humidity;BMP_temperature;BMP_pressure;BME280_temperature;BME280_humidity;BME280_pressure;Samples;Min_cycle;Max_cycle;Signal;HPM_P1;HPM_P2
2023/05/28 00:02:38;;;;;;;;;;;;;;;16.90;52.68;98448.84;7391465;19;20373;-81
2023/05/28 00:05:05;;;;;;;;;;;;;;;16.85;54.53;98453.94;7397456;19;19923;-81
2023/05/28 00:07:32;;;;;;;;;;;;;;;16.66;51.15;98450.91;7393382;19;19919;-80
2023/05/28 00:10:01;;;;;;;;;;;;;;;16.70;53.14;98450.53;7391736;19;19959;-81
2023/05/28 00:12:28;;;;;;;;;;;;;;;16.67;51.85;98449.91;7397275;19;19926;-81
2023/05/28 00:14:55;;;;;;;;;;;;;;;16.57;52.35;98452.06;7391214;19;19961;-80
2023/05/28 00:17:21;;;;;;;;;;;;;;;16.46;51.49;98442.72;7384960;19;19923;-80
2023/05/28 00:19:48;;;;;;;;;;;;;;;16.55;54.47;98442.59;7393071;19;20475;-81
2023/05/28 00:22:16;;;;;;;;;;;;;;;16.55;54.97;98447.94;7389851;19;19914;-82
2023/05/28 00:24:42;;;;;;;;;;;;;;;16.53;56.03;98440.09;7393465;19;20607;-81
2023/05/28 00:27:09;;;;;;;;;;;;;;;16.49;55.25;98438.03;7394027;19;19944;-82
2023/05/28 00:29:36;;;;;;;;;;;;;;;16.45;55.65;98434.91;7397940;19;20283;-82
2023/05/28 00:32:03;;;;;;;;;;;;;;;16.44;54.88;98431.41;7390477;19;19922;-82
2023/05/28 00:34:32;;;;;;;;;;;;;;;16.40;54.84;98429.31;7395454;19;20384;-81
2023/05/28 00:36:59;;;;;;;;;;;;;;;16.41;55.06;98423.78;7387851;19;20371;-81
2023/05/28 00:39:26;;;;;;;;;;;;;;;16.33;53.76;98428.44;7396554;19;19929;-81
2023/05/28 00:42:10;;;;;;;;;;;;;;;16.12;52.99;98424.75;7389912;19;19929;-80
2023/05/28 00:44:39;;;;;;;;;;;;;;;16.16;53.88;98423.31;7389735;19;20266;-81
2023/05/28 00:47:05;;;;;;;;;;;;;;;16.08;53.69;98431.47;7390336;19;19919;-81
2023/05/28 00:49:32;;;;;;;;;;;;;;;16.01;53.01;98435.94;7389854;19;20328;-81
2023/05/28 00:51:59;;;;;;;;;;;;;;;15.99;53.90;98425.44;7384137;19;19919;-80
2023/05/28 00:54:26;;;;;;;;;;;;;;;15.95;54.64;98432.13;7392682;19;20378;-80
2023/05/28 00:56:53;;;;;;;;;;;;;;;15.92;54.08;98432.53;7388428;19;19922;-79
2023/05/28 00:59:21;;;;;;;;;;;;;;;15.92;54.45;98421.03;7390878;19;19923;-79
2023/05/28 01:01:48;;;;;;;;;;;;;;;15.86;53.60;98419.94;7389081;19;20249;-80
2023/05/28 01:04:15;;;;;;;;;;;;;;;15.84;53.75;98421.16;7387835;19;19938;-80
2023/05/28 01:06:49;;;;;;;;;;;;;;;15.89;54.72;98422.22;7388072;19;19947;-81
2023/05/28 01:09:16;;;;;;;;;;;;;;;15.91;55.47;98422.06;7391472;19;19950;-81
2023/05/28 01:11:43;;;;;;;;;;;;;;;15.89;56.23;98422.22;7391485;19;20548;-81
2023/05/28 01:14:12;;;;;;;;;;;;;;;15.91;55.54;98425.53;7384678;19;19907;-81
2023/05/28 01:16:40;;;;;;;;;;;;;;;15.92;56.96;98421.03;7393257;19;19950;-81
2023/05/28 01:19:08;;;;;;;;;;;;;;;15.89;56.06;98421.41;7391934;19;19939;-82
2023/05/28 01:21:37;;;;;;;;;;;;;;;15.80;55.83;98424.19;7392785;19;19922;-81
2023/05/28 01:24:04;;;;;;;;;;;;;;;15.73;54.82;98417.13;7389808;19;19922;-81
2023/05/28 01:26:31;;;;;;;;;;;;;;;15.73;56.01;98422.47;7390902;19;19922;-83
2023/05/28 01:28:58;;;;;;;;;;;;;;;15.66;56.46;98418.84;7392392;19;19935;-83
2023/05/28 01:31:26;;;;;;;;;;;;;;;15.61;56.18;98418.59;7390051;19;19914;-82
2023/05/28 01:33:53;;;;;;;;;;;;;;;15.57;55.80;98421.63;7389918;19;19926;-80
2023/05/28 01:36:21;;;;;;;;;;;;;;;15.54;55.53;98422.00;7393318;19;19937;-83
2023/05/28 01:38:49;;;;;;;;;;;;;;;15.50;56.07;98418.03;7393556;19;19922;-82
2023/05/28 01:41:16;;;;;;;;;;;;;;;15.50;57.61;98417.22;7391225;19;21160;-81
2023/05/28 01:43:42;;;;;;;;;;;;;;;15.53;58.20;98411.50;7391768;19;19914;-83
2023/05/28 01:46:09;;;;;;;;;;;;;;;15.50;57.83;98414.56;7393486;19;21135;-83
2023/05/28 01:48:36;;;;;;;;;;;;;;;15.47;57.44;98406.94;7392701;19;19935;-83
2023/05/28 01:51:03;;;;;;;;;;;;;;;15.43;57.21;98409.16;7384475;19;19923;-82
2023/05/28 01:53:30;;;;;;;;;;;;;;;15.43;56.61;98416.31;7382826;19;19994;-81
2023/05/28 01:55:56;;;;;;;;;;;;;;;15.41;57.65;98421.84;7382324;19;19980;-82
2023/05/28 01:58:24;;;;;;;;;;;;;;;15.34;56.51;98408.41;7383807;19;19915;-82
2023/05/28 02:00:55;;;;;;;;;;;;;;;15.41;58.22;98410.34;7388193;19;19918;-80
2023/05/28 02:03:23;;;;;;;;;;;;;;;15.35;58.61;98412.75;7384982;19;19911;-83
2023/05/28 02:05:50;;;;;;;;;;;;;;;15.31;58.04;98413.31;7388520;19;19914;-83
2023/05/28 02:08:17;;;;;;;;;;;;;;;15.24;56.90;98415.84;7388220;19;22010;-83
2023/05/28 02:10:43;;;;;;;;;;;;;;;15.24;59.59;98410.53;7393467;19;19919;-82
2023/05/28 02:13:10;;;;;;;;;;;;;;;15.21;59.38;98413.56;7383290;19;19938;-83
2023/05/28 02:15:37;;;;;;;;;;;;;;;15.17;58.64;98408.81;7390277;19;19922;-83
2023/05/28 02:18:04;;;;;;;;;;;;;;;15.13;57.49;98414.50;7386784;19;19923;-83
2023/05/28 02:20:30;;;;;;;;;;;;;;;15.03;57.54;98399.78;7391695;19;20355;-83
2023/05/28 02:22:58;;;;;;;;;;;;;;;15.01;57.97;98399.13;7372446;19;19982;-82
2023/05/28 02:25:25;;;;;;;;;;;;;;;14.95;58.37;98405.22;7405960;19;19923;-80
2023/05/28 02:27:51;;;;;;;;;;;;;;;14.92;57.24;98411.72;7408403;19;20282;-81
2023/05/28 02:30:18;;;;;;;;;;;;;;;14.92;58.69;98409.88;7402838;19;19930;-81
2023/05/28 02:32:46;;;;;;;;;;;;;;;14.92;58.87;98396.56;7399395;19;19939;-81
2023/05/28 02:35:15;;;;;;;;;;;;;;;14.91;59.09;98402.91;7400123;19;19919;-82
2023/05/28 02:37:43;;;;;;;;;;;;;;;14.84;58.66;98396.66;7396958;19;19919;-82
2023/05/28 02:40:15;;;;;;;;;;;;;;;14.83;59.67;98400.34;7398898;19;19922;-82
2023/05/28 02:42:42;;;;;;;;;;;;;;;14.78;59.87;98394.72;7397629;19;19932;-82
2023/05/28 02:45:13;;;;;;;;;;;;;;;14.73;60.02;98394.44;7397268;19;19939;-81
2023/05/28 02:47:40;;;;;;;;;;;;;;;14.71;59.69;98389.28;7401497;19;19925;-81
2023/05/28 02:50:07;;;;;;;;;;;;;;;14.66;59.75;98396.16;7411782;19;19918;-81
2023/05/28 02:52:49;;;;;;;;;;;;;;;14.64;60.75;98398.19;7409802;19;19935;-81
2023/05/28 02:55:15;;;;;;;;;;;;;;;14.65;61.54;98403.34;7411412;19;19918;-81
2023/05/28 02:57:42;;;;;;;;;;;;;;;14.55;60.25;98402.75;7416071;19;19926;-81
2023/05/28 03:00:12;;;;;;;;;;;;;;;14.52;60.64;98402.28;7410503;19;19931;-81
2023/05/28 03:02:39;;;;;;;;;;;;;;;14.52;62.17;98407.59;7411377;19;19915;-81
2023/05/28 03:05:06;;;;;;;;;;;;;;;14.48;60.72;98402.63;7409944;19;19919;-81
2023/05/28 03:07:33;;;;;;;;;;;;;;;14.42;61.13;98405.19;7412211;19;19947;-82
2023/05/28 03:09:59;;;;;;;;;;;;;;;14.44;62.32;98408.50;7413462;19;19922;-81
2023/05/28 03:12:26;;;;;;;;;;;;;;;14.35;62.42;98414.88;7395355;19;19919;-81
2023/05/28 03:14:54;;;;;;;;;;;;;;;14.26;60.75;98414.13;7395009;19;19918;-81
2023/05/28 03:17:21;;;;;;;;;;;;;;;14.24;62.38;98414.31;7394729;19;19998;-81
2023/05/28 03:19:48;;;;;;;;;;;;;;;14.26;62.37;98414.94;7393464;19;19938;-81
2023/05/28 03:22:17;;;;;;;;;;;;;;;14.28;63.22;98418.25;7387972;19;20619;-81
2023/05/28 03:24:44;;;;;;;;;;;;;;;14.18;62.17;98411.53;7392692;19;19995;-83
2023/05/28 03:27:12;;;;;;;;;;;;;;;14.15;63.01;98418.03;7390725;19;21146;-82
2023/05/28 03:29:39;;;;;;;;;;;;;;;14.12;63.24;98412.25;7393625;19;19935;-84
2023/05/28 03:32:25;;;;;;;;;;;;;;;14.10;63.39;98411.59;7392795;19;22298;-83
2023/05/28 03:34:52;;;;;;;;;;;;;;;14.09;63.07;98413.44;7392807;19;19914;-83
2023/05/28 03:37:26;;;;;;;;;;;;;;;14.11;63.54;98415.91;7383837;19;19926;-83
2023/05/28 03:39:53;;;;;;;;;;;;;;;14.11;63.41;98414.06;7392145;19;19915;-83
2023/05/28 03:42:21;;;;;;;;;;;;;;;14.14;63.50;98405.75;7389185;19;19942;-83
2023/05/28 03:44:48;;;;;;;;;;;;;;;14.06;63.65;98408.47;7389986;19;19998;-83
2023/05/28 03:47:15;;;;;;;;;;;;;;;14.01;63.58;98411.66;7389242;19;19914;-83
2023/05/28 03:49:42;;;;;;;;;;;;;;;14.02;64.05;98418.63;7392227;19;19929;-80
2023/05/28 03:52:08;;;;;;;;;;;;;;;14.03;64.21;98419.44;7380204;19;20289;-82
2023/05/28 03:54:50;;;;;;;;;;;;;;;14.01;63.78;98419.63;7388447;19;20314;-82
2023/05/28 03:57:20;;;;;;;;;;;;;;;14.00;62.80;98415.28;7387123;19;19915;-82
2023/05/28 03:59:47;;;;;;;;;;;;;;;13.98;63.13;98422.66;7391297;19;20368;-81
2023/05/28 04:02:17;;;;;;;;;;;;;;;13.91;62.27;98416.38;7385779;19;19911;-82
2023/05/28 04:04:45;;;;;;;;;;;;;;;13.94;63.07;98420.50;7390428;19;19982;-82
2023/05/28 04:07:11;;;;;;;;;;;;;;;13.92;61.85;98422.50;7385537;19;19922;-82
2023/05/28 04:09:38;;;;;;;;;;;;;;;13.98;63.26;98421.78;7383971;19;20504;-82
2023/05/28 04:12:06;;;;;;;;;;;;;;;13.97;62.81;98413.00;7381781;19;20053;-82
2023/05/28 04:14:33;;;;;;;;;;;;;;;13.98;63.06;98417.31;7385948;19;19931;-82
2023/05/28 04:16:59;;;;;;;;;;;;;;;13.90;62.44;98420.03;7389602;19;19921;-82
2023/05/28 04:19:26;;;;;;;;;;;;;;;13.89;63.38;98410.38;7388136;19;20620;-81
2023/05/28 04:21:53;;;;;;;;;;;;;;;13.81;61.90;98413.09;7388214;19;19947;-82
2023/05/28 04:24:19;;;;;;;;;;;;;;;13.82;62.94;98414.75;7385360;19;19925;-82
2023/05/28 04:26:47;;;;;;;;;;;;;;;13.92;65.17;98412.69;7388144;19;19915;-82
2023/05/28 04:29:14;;;;;;;;;;;;;;;13.91;63.13;98416.38;7385572;19;19946;-81
2023/05/28 04:31:43;;;;;;;;;;;;;;;13.94;63.20;98410.69;7386483;19;20380;-82
2023/05/28 04:34:11;;;;;;;;;;;;;;;14.07;64.29;98415.44;7384873;19;19915;-82
2023/05/28 04:36:38;;;;;;;;;;;;;;;14.03;62.58;98416.78;7378090;19;19935;-82
2023/05/28 04:39:05;;;;;;;;;;;;;;;13.97;62.21;98422.81;7370795;19;19925;-80
2023/05/28 04:41:32;;;;;;;;;;;;;;;13.86;62.16;98429.34;7383051;19;19926;-81
2023/05/28 04:43:59;;;;;;;;;;;;;;;13.81;62.56;98426.41;7374148;19;19992;-82
2023/05/28 04:46:29;;;;;;;;;;;;;;;13.69;62.11;98427.78;7382096;19;19936;-81
2023/05/28 04:48:57;;;;;;;;;;;;;;;13.63;63.07;98424.00;7381422;19;19914;-80
2023/05/28 04:51:25;;;;;;;;;;;;;;;13.59;62.81;98423.53;7376317;19;19927;-80
2023/05/28 04:53:52;;;;;;;;;;;;;;;13.59;63.05;98428.03;7379154;19;19922;-81
2023/05/28 04:56:19;;;;;;;;;;;;;;;13.58;63.63;98431.66;7382038;19;19915;-81
2023/05/28 04:58:46;;;;;;;;;;;;;;;13.63;63.72;98428.50;7385528;19;19931;-82
2023/05/28 05:01:14;;;;;;;;;;;;;;;13.64;63.38;98431.00;7385081;19;19915;-81
2023/05/28 05:03:41;;;;;;;;;;;;;;;13.66;63.44;98428.97;7378138;19;19926;-81
2023/05/28 05:06:08;;;;;;;;;;;;;;;13.63;63.52;98433.81;7380334;19;19918;-81
2023/05/28 05:08:35;;;;;;;;;;;;;;;13.66;63.30;98436.13;7380777;19;19923;-81
2023/05/28 05:11:04;;;;;;;;;;;;;;;13.67;64.01;98430.63;7379103;19;20469;-80
2023/05/28 05:13:31;;;;;;;;;;;;;;;13.70;64.35;98432.94;7367146;19;19918;-80
2023/05/28 05:15:58;;;;;;;;;;;;;;;13.78;64.96;98432.06;7374080;19;19967;-80
2023/05/28 05:18:25;;;;;;;;;;;;;;;13.86;64.55;98439.19;7373876;19;20010;-80
2023/05/28 05:20:53;;;;;;;;;;;;;;;13.89;65.22;98434.31;7377423;19;19933;-80
2023/05/28 05:23:20;;;;;;;;;;;;;;;14.05;66.16;98433.41;7357195;19;19926;-80
2023/05/28 05:25:48;;;;;;;;;;;;;;;14.18;66.07;98432.81;7378333;19;19919;-78
2023/05/28 05:28:14;;;;;;;;;;;;;;;14.20;64.62;98436.94;7380779;19;20839;-82
2023/05/28 05:30:42;;;;;;;;;;;;;;;14.23;64.42;98438.44;7368353;19;20035;-80
2023/05/28 05:33:08;;;;;;;;;;;;;;;14.29;64.46;98429.72;7372156;19;19926;-81
2023/05/28 05:36:01;;;;;;;;;;;;;;;14.41;65.34;98433.63;7378921;19;19934;-80
2023/05/28 05:38:50;;;;;;;;;;;;;;;14.54;63.60;98440.22;7382897;19;19938;-80
2023/05/28 05:41:43;;;;;;;;;;;;;;;14.65;65.21;98440.63;7376858;19;19922;-81
2023/05/28 05:44:16;;;;;;;;;;;;;;;14.67;62.54;98438.59;7383830;19;20357;-78
2023/05/28 05:46:43;;;;;;;;;;;;;;;14.68;60.82;98437.59;7385184;19;19936;-80
2023/05/28 05:49:10;;;;;;;;;;;;;;;14.72;58.65;98440.75;7391300;19;19947;-79
2023/05/28 05:51:37;;;;;;;;;;;;;;;14.78;57.76;98433.84;7387990;19;19939;-80
2023/05/28 05:54:04;;;;;;;;;;;;;;;14.79;57.10;98433.66;7393655;19;19926;-78
2023/05/28 05:56:31;;;;;;;;;;;;;;;14.83;55.62;98432.31;7380846;19;19986;-81
2023/05/28 05:58:58;;;;;;;;;;;;;;;14.95;57.56;98421.19;7385427;19;20279;-82
2023/05/28 06:01:25;;;;;;;;;;;;;;;14.99;58.16;98435.81;7388290;19;19943;-83
2023/05/28 06:03:54;;;;;;;;;;;;;;;15.12;58.25;98436.00;7391859;19;19947;-81
2023/05/28 06:06:37;;;;;;;;;;;;;;;15.28;59.09;98441.16;7394904;19;19957;-81
2023/05/28 06:09:16;;;;;;;;;;;;;;;15.22;55.81;98441.91;7397656;19;19910;-82
2023/05/28 06:11:53;;;;;;;;;;;;;;;15.22;54.37;98441.91;7399938;19;19910;-81
2023/05/28 06:14:20;;;;;;;;;;;;;;;15.32;54.71;98439.78;7391823;19;19926;-81
2023/05/28 06:16:48;;;;;;;;;;;;;;;15.46;53.89;98445.28;7400880;19;20455;-81
2023/05/28 06:19:16;;;;;;;;;;;;;;;15.50;55.01;98438.56;7398169;19;19927;-80
2023/05/28 06:21:43;;;;;;;;;;;;;;;15.52;54.36;98441.88;7395850;19;20358;-81
2023/05/28 06:24:10;;;;;;;;;;;;;;;15.50;54.10;98442.03;7389882;19;20341;-80
2023/05/28 06:26:37;;;;;;;;;;;;;;;15.62;53.39;98446.94;7393344;19;19919;-80
2023/05/28 06:29:07;;;;;;;;;;;;;;;15.58;53.23;98438.44;7399104;19;19961;-80
2023/05/28 06:31:34;;;;;;;;;;;;;;;15.67;53.72;98441.88;7397160;19;19936;-79
2023/05/28 06:34:03;;;;;;;;;;;;;;;15.75;53.79;98442.59;7397891;19;19923;-81
2023/05/28 06:36:30;;;;;;;;;;;;;;;15.88;55.63;98436.59;7394967;19;21217;-81
2023/05/28 06:38:57;;;;;;;;;;;;;;;16.02;58.20;98437.56;7399976;19;19942;-83
2023/05/28 06:41:26;;;;;;;;;;;;;;;16.14;58.23;98430.72;7396550;19;19915;-83
2023/05/28 06:43:52;;;;;;;;;;;;;;;16.20;57.38;98434.47;7393247;19;19926;-81
2023/05/28 06:46:30;;;;;;;;;;;;;;;16.30;57.92;98440.31;7388419;19;19925;-82
2023/05/28 06:49:03;;;;;;;;;;;;;;;16.31;53.93;98439.28;7393398;19;19914;-82
2023/05/28 06:51:31;;;;;;;;;;;;;;;16.42;53.73;98443.28;7392076;19;19978;-82
2023/05/28 06:53:57;;;;;;;;;;;;;;;16.36;53.71;98441.41;7388899;19;19922;-80
2023/05/28 06:56:28;;;;;;;;;;;;;;;16.44;54.94;98446.59;7393271;19;19910;-82
2023/05/28 06:59:14;;;;;;;;;;;;;;;16.39;54.30;98444.50;7398735;19;19917;-83
2023/05/28 07:02:03;;;;;;;;;;;;;;;16.44;52.98;98447.44;7389716;19;19922;-81
2023/05/28 07:04:52;;;;;;;;;;;;;;;16.33;53.22;98445.28;7395518;19;19921;-80
2023/05/28 07:07:30;;;;;;;;;;;;;;;16.44;52.66;98446.59;7392599;19;19949;-80
2023/05/28 07:09:59;;;;;;;;;;;;;;;16.46;52.91;98439.25;7393268;19;20540;-80
2023/05/28 07:12:26;;;;;;;;;;;;;;;16.47;52.60;98446.22;7392486;19;19915;-79
2023/05/28 07:14:56;;;;;;;;;;;;;;;16.58;53.85;98442.19;7389785;19;19919;-79
2023/05/28 07:17:23;;;;;;;;;;;;;;;16.64;53.43;98447.63;7388008;19;19921;-81
2023/05/28 07:19:51;;;;;;;;;;;;;;;16.51;51.93;98450.16;7390464;19;20333;-79
2023/05/28 07:22:30;;;;;;;;;;;;;;;16.64;51.75;98447.63;7385972;19;19925;-81
2023/05/28 07:24:57;;;;;;;;;;;;;;;16.70;52.20;98450.53;7390409;19;19936;-80
2023/05/28 07:27:23;;;;;;;;;;;;;;;16.89;51.94;98444.53;7389737;19;19918;-80
2023/05/28 07:29:50;;;;;;;;;;;;;;;16.80;52.06;98459.06;7392913;19;20266;-81
2023/05/28 07:32:18;;;;;;;;;;;;;;;16.89;52.19;98450.69;7382532;19;19922;-81
2023/05/28 07:34:47;;;;;;;;;;;;;;;17.04;52.12;98453.28;7387800;19;19952;-79
2023/05/28 07:37:15;;;;;;;;;;;;;;;17.18;55.15;98448.03;7384009;19;19926;-81
2023/05/28 07:39:45;;;;;;;;;;;;;;;17.19;50.49;98452.34;7391858;19;20352;-82
2023/05/28 07:42:13;;;;;;;;;;;;;;;17.37;51.75;98452.66;7389520;19;19922;-82
2023/05/28 07:44:42;;;;;;;;;;;;;;;17.52;53.86;98444.50;7389606;19;20633;-83
2023/05/28 07:47:09;;;;;;;;;;;;;;;17.59;52.34;98448.06;7394654;19;19927;-82
2023/05/28 07:50:06;;;;;;;;;;;;;;;17.61;50.90;98447.84;7397940;19;19918;-81
2023/05/28 07:53:01;;;;;;;;;;;;;;;17.48;52.87;98446.78;7391401;19;19923;-82
2023/05/28 07:55:28;;;;;;;;;;;;;;;17.44;52.61;98450.84;7385257;19;19915;-81
2023/05/28 07:57:58;;;;;;;;;;;;;;;17.46;52.72;98448.00;7395056;19;19923;-81
2023/05/28 08:00:30;;;;;;;;;;;;;;;17.53;53.45;98446.16;7394002;19;19930;-80
2023/05/28 08:03:03;;;;;;;;;;;;;;;17.61;53.74;98443.31;7388755;19;20300;-80
2023/05/28 08:05:36;;;;;;;;;;;;;;;17.54;50.86;98443.28;7399241;19;19907;-83
2023/05/28 08:08:03;;;;;;;;;;;;;;;17.65;51.62;98438.41;7396008;19;19918;-80
2023/05/28 08:10:31;;;;;;;;;;;;;;;17.76;53.49;98441.31;7395229;19;21558;-80
2023/05/28 08:12:58;;;;;;;;;;;;;;;17.88;52.77;98438.94;7397266;19;19919;-78
2023/05/28 08:15:24;;;;;;;;;;;;;;;17.94;52.78;98432.75;7399246;19;19922;-80
2023/05/28 08:17:54;;;;;;;;;;;;;;;18.02;51.11;98436.28;7400741;19;19915;-80
2023/05/28 08:20:26;;;;;;;;;;;;;;;17.76;50.67;98429.78;7394036;19;19919;-83
2023/05/28 08:23:03;;;;;;;;;;;;;;;17.92;50.06;98445.50;7393587;19;19926;-81
2023/05/28 08:25:32;;;;;;;;;;;;;;;18.07;50.08;98434.66;7392299;19;19919;-78
2023/05/28 08:28:05;;;;;;;;;;;;;;;18.06;51.08;98426.81;7397544;19;19955;-79
2023/05/28 08:30:32;;;;;;;;;;;;;;;18.06;50.69;98429.50;7391013;19;19941;-82
2023/05/28 08:33:07;;;;;;;;;;;;;;;18.27;49.11;98426.66;7395053;19;20644;-81
2023/05/28 08:35:38;;;;;;;;;;;;;;;18.13;49.47;98425.81;7399145;19;19928;-85
2023/05/28 08:38:06;;;;;;;;;;;;;;;18.40;49.83;98421.34;7395739;19;19914;-81
2023/05/28 08:40:40;;;;;;;;;;;;;;;18.49;49.00;98423.81;7387708;19;19918;-81
2023/05/28 08:43:08;;;;;;;;;;;;;;;18.57;49.55;98424.41;7387640;19;19927;-81
2023/05/28 08:45:35;;;;;;;;;;;;;;;18.71;48.62;98419.88;7386125;19;19914;-78
2023/05/28 08:48:01;;;;;;;;;;;;;;;19.09;49.10;98413.91;7390112;19;19911;-80
2023/05/28 08:50:33;;;;;;;;;;;;;;;19.27;49.10;98410.53;7395404;19;20442;-82
2023/05/28 08:53:13;;;;;;;;;;;;;;;19.42;50.73;98407.59;7396056;19;19919;-84
2023/05/28 08:55:41;;;;;;;;;;;;;;;19.61;50.98;98404.00;7402671;19;20259;-84
2023/05/28 08:58:16;;;;;;;;;;;;;;;19.73;48.55;98404.22;7398730;19;19942;-83
2023/05/28 09:00:47;;;;;;;;;;;;;;;19.87;50.85;98396.91;7393062;19;19923;-83
2023/05/28 09:03:33;;;;;;;;;;;;;;;19.93;48.99;98393.34;7394823;19;19933;-82
2023/05/28 09:06:10;;;;;;;;;;;;;;;20.01;49.01;98389.59;7403728;19;19930;-83
2023/05/28 09:08:37;;;;;;;;;;;;;;;20.09;47.01;98382.13;7399806;19;19922;-80
2023/05/28 09:11:14;;;;;;;;;;;;;;;19.86;45.89;98387.22;7398133;19;19926;-82
2023/05/28 09:13:43;;;;;;;;;;;;;;;19.83;46.58;98385.78;7400927;19;19925;-80
2023/05/28 09:16:23;;;;;;;;;;;;;;;20.00;46.00;98382.59;7409111;19;19923;-83
2023/05/28 09:19:02;;;;;;;;;;;;;;;20.21;45.18;98381.41;7391337;19;19942;-81
2023/05/28 09:21:30;;;;;;;;;;;;;;;20.31;46.43;98377.19;7394043;19;19915;-80
2023/05/28 09:24:01;;;;;;;;;;;;;;;20.38;44.57;98374.47;7391766;19;19939;-81
2023/05/28 09:26:29;;;;;;;;;;;;;;;20.53;45.27;98377.63;7393861;19;19927;-79
2023/05/28 09:29:02;;;;;;;;;;;;;;;20.58;43.94;98371.63;7402520;19;19963;-82
2023/05/28 09:31:32;;;;;;;;;;;;;;;20.76;47.61;98369.00;7394000;19;19916;-84
2023/05/28 09:34:03;;;;;;;;;;;;;;;20.95;47.57;98364.47;7395235;19;19911;-82
2023/05/28 09:36:32;;;;;;;;;;;;;;;21.15;45.25;98366.94;7398252;19;19915;-82
2023/05/28 09:38:59;;;;;;;;;;;;;;;21.43;44.75;98361.06;7409498;19;19926;-80
2023/05/28 09:41:34;;;;;;;;;;;;;;;21.56;42.30;98351.16;7395293;19;20689;-79
2023/05/28 09:44:01;;;;;;;;;;;;;;;21.76;41.10;98357.09;7392679;19;19978;-80
2023/05/28 09:46:29;;;;;;;;;;;;;;;22.05;42.72;98354.63;7400652;19;19919;-82
2023/05/28 09:48:56;;;;;;;;;;;;;;;21.99;41.20;98360.94;7398970;19;19915;-82
2023/05/28 09:51:28;;;;;;;;;;;;;;;22.10;40.94;98354.75;7390205;19;20733;-82
2023/05/28 09:53:57;;;;;;;;;;;;;;;22.27;39.51;98358.44;7392096;19;19943;-83
2023/05/28 09:56:31;;;;;;;;;;;;;;;22.59;39.19;98352.72;7384855;19;19919;-77
2023/05/28 09:59:01;;;;;;;;;;;;;;;22.97;39.71;98355.00;7382623;19;19914;-81
2023/05/28 10:01:31;;;;;;;;;;;;;;;23.32;40.90;98353.28;7387685;19;19926;-80
2023/05/28 10:04:05;;;;;;;;;;;;;;;23.66;39.65;98352.34;7385195;19;19939;-81
2023/05/28 10:06:33;;;;;;;;;;;;;;;24.13;40.84;98358.63;7381544;19;19919;-79
2023/05/28 10:09:04;;;;;;;;;;;;;;;24.49;37.81;98347.38;7384227;19;20382;-80
2023/05/28 10:11:43;;;;;;;;;;;;;;;24.82;34.86;98348.41;7389036;19;19914;-80
2023/05/28 10:14:19;;;;;;;;;;;;;;;25.08;36.18;98348.75;7390386;19;19922;-80
2023/05/28 10:16:46;;;;;;;;;;;;;;;25.05;33.73;98343.84;7385407;19;19926;-78
2023/05/28 10:19:16;;;;;;;;;;;;;;;25.10;35.85;98347.44;7383230;19;19915;-82
2023/05/28 10:21:43;;;;;;;;;;;;;;;24.86;33.86;98343.31;7382516;19;19918;-75
2023/05/28 10:24:11;;;;;;;;;;;;;;;24.45;35.45;98351.63;7379250;19;19919;-84
2023/05/28 10:26:37;;;;;;;;;;;;;;;24.73;36.14;98350.72;7380535;19;21417;-79
2023/05/28 10:29:13;;;;;;;;;;;;;;;24.91;36.80;98335.28;7386716;19;19930;-78
2023/05/28 10:31:40;;;;;;;;;;;;;;;24.96;37.89;98335.31;7386918;19;19922;-80
2023/05/28 10:34:16;;;;;;;;;;;;;;;24.79;36.73;98343.47;7386845;19;19915;-78
2023/05/28 10:36:51;;;;;;;;;;;;;;;24.30;34.22;98341.38;7384807;19;19986;-77
2023/05/28 10:39:41;;;;;;;;;;;;;;;24.19;36.73;98339.53;7380354;19;19919;-79
2023/05/28 10:42:08;;;;;;;;;;;;;;;24.05;38.12;98347.16;7382600;19;20257;-77
2023/05/28 10:44:54;;;;;;;;;;;;;;;23.76;38.08;98343.66;7379233;19;20453;-81
2023/05/28 10:47:30;;;;;;;;;;;;;;;23.58;40.16;98347.34;7385008;19;19922;-78
2023/05/28 10:49:57;;;;;;;;;;;;;;;23.42;35.78;98340.00;7393517;19;20662;-83
2023/05/28 10:52:39;;;;;;;;;;;;;;;23.32;38.88;98346.00;7389153;19;19922;-82
2023/05/28 10:55:07;;;;;;;;;;;;;;;23.28;38.59;98344.03;7392892;19;19918;-84
2023/05/28 10:57:39;;;;;;;;;;;;;;;23.23;38.93;98337.47;7385323;19;20379;-79
2023/05/28 11:00:13;;;;;;;;;;;;;;;22.91;37.23;98333.53;7386712;19;19979;-80
2023/05/28 11:02:41;;;;;;;;;;;;;;;22.77;37.69;98331.03;7388278;19;19933;-81
2023/05/28 11:05:09;;;;;;;;;;;;;;;22.70;38.30;98333.06;7389559;19;20399;-81
2023/05/28 11:07:41;;;;;;;;;;;;;;;22.51;37.92;98326.97;7387451;19;19907;-80
2023/05/28 11:10:12;;;;;;;;;;;;;;;22.77;39.25;98317.56;7392005;19;19915;-82
2023/05/28 11:12:39;;;;;;;;;;;;;;;22.78;37.56;98329.19;7385872;19;20274;-79
2023/05/28 11:15:07;;;;;;;;;;;;;;;23.11;35.49;98320.47;7385885;19;19929;-81
2023/05/28 11:17:38;;;;;;;;;;;;;;;23.09;35.67;98322.63;7381527;19;20306;-79
2023/05/28 11:20:05;;;;;;;;;;;;;;;23.23;35.90;98315.06;7389064;19;19938;-79
2023/05/28 11:22:33;;;;;;;;;;;;;;;23.34;33.93;98313.38;7382209;19;19939;-82
2023/05/28 11:25:04;;;;;;;;;;;;;;;23.01;35.38;98306.75;7391016;19;19915;-81
2023/05/28 11:27:32;;;;;;;;;;;;;;;23.12;38.66;98305.94;7390573;19;19923;-79
2023/05/28 11:29:59;;;;;;;;;;;;;;;23.08;35.20;98304.75;7390192;19;19936;-82
2023/05/28 11:32:31;;;;;;;;;;;;;;;23.25;36.66;98304.00;7383410;19;19922;-82
2023/05/28 11:35:04;;;;;;;;;;;;;;;23.28;36.06;98303.56;7388641;19;19925;-81
2023/05/28 11:37:39;;;;;;;;;;;;;;;23.45;37.77;98307.94;7385622;19;19922;-83
2023/05/28 11:40:10;;;;;;;;;;;;;;;23.54;36.02;98307.53;7387266;19;19921;-84
2023/05/28 11:42:39;;;;;;;;;;;;;;;23.54;38.15;98297.59;7388565;19;19914;-80
2023/05/28 11:45:06;;;;;;;;;;;;;;;23.48;34.50;98303.13;7392076;19;19919;-81
2023/05/28 11:47:33;;;;;;;;;;;;;;;23.44;36.51;98292.81;7386545;19;19942;-78
2023/05/28 11:50:10;;;;;;;;;;;;;;;23.64;38.57;98307.72;7390332;19;19915;-83
2023/05/28 11:52:37;;;;;;;;;;;;;;;23.67;34.88;98300.00;7385439;19;19923;-77
2023/05/28 11:55:04;;;;;;;;;;;;;;;23.69;37.33;98297.03;7391149;19;19989;-78
2023/05/28 11:57:36;;;;;;;;;;;;;;;23.67;37.26;98299.16;7380991;19;19959;-83
2023/05/28 12:00:18;;;;;;;;;;;;;;;23.59;33.44;98294.97;7386149;19;19946;-78
2023/05/28 12:02:49;;;;;;;;;;;;;;;23.79;34.00;98288.31;7384805;19;19942;-80
2023/05/28 12:05:16;;;;;;;;;;;;;;;23.98;35.90;98297.84;7386902;19;19952;-82
2023/05/28 12:07:47;;;;;;;;;;;;;;;23.99;34.93;98298.69;7387782;19;19919;-81
2023/05/28 12:10:15;;;;;;;;;;;;;;;24.10;32.79;98293.19;7391962;19;20018;-80
2023/05/28 12:12:45;;;;;;;;;;;;;;;24.38;35.04;98294.19;7392493;19;19929;-80
2023/05/28 12:15:15;;;;;;;;;;;;;;;24.91;31.47;98275.75;7392191;19;20349;-78
2023/05/28 12:17:47;;;;;;;;;;;;;;;25.08;33.60;98276.47;7389092;19;19914;-80
2023/05/28 12:20:17;;;;;;;;;;;;;;;25.08;35.40;98278.38;7387365;19;19922;-81
2023/05/28 12:22:44;;;;;;;;;;;;;;;25.02;31.08;98280.22;7381722;19;19918;-80
2023/05/28 12:25:11;;;;;;;;;;;;;;;24.69;33.28;98283.81;7386558;19;21929;-76
2023/05/28 12:27:37;;;;;;;;;;;;;;;24.44;32.87;98285.09;7384285;19;19933;-80
2023/05/28 12:30:05;;;;;;;;;;;;;;;24.49;30.41;98281.66;7388410;19;19919;-81
2023/05/28 12:32:36;;;;;;;;;;;;;;;24.55;33.73;98269.84;7385964;19;19927;-75
2023/05/28 12:35:03;;;;;;;;;;;;;;;24.51;33.37;98272.22;7386258;19;19955;-78
2023/05/28 12:37:30;;;;;;;;;;;;;;;24.40;33.15;98278.50;7380715;19;19921;-82
2023/05/28 12:39:56;;;;;;;;;;;;;;;24.40;35.49;98286.63;7389408;19;19926;-78
2023/05/28 12:42:23;;;;;;;;;;;;;;;24.41;32.11;98274.75;7388426;19;19922;-81
2023/05/28 12:44:50;;;;;;;;;;;;;;;24.31;33.49;98277.31;7388949;19;19946;-79
2023/05/28 12:47:16;;;;;;;;;;;;;;;24.36;32.96;98276.56;7389302;19;20313;-80
2023/05/28 12:49:46;;;;;;;;;;;;;;;24.48;33.08;98264.59;7386472;19;19922;-78
2023/05/28 12:52:13;;;;;;;;;;;;;;;24.70;32.87;98261.94;7387093;19;19926;-79
2023/05/28 12:54:40;;;;;;;;;;;;;;;24.84;31.64;98254.28;7380093;19;19932;-79
2023/05/28 12:57:06;;;;;;;;;;;;;;;24.98;30.64;98249.28;7383829;19;19939;-77
2023/05/28 12:59:39;;;;;;;;;;;;;;;24.77;29.11;98255.53;7383192;19;19914;-80
2023/05/28 13:02:07;;;;;;;;;;;;;;;24.68;29.45;98241.63;7387177;19;20938;-79